createdAt,value
2018-03-03T00:01:07.332Z,98132.48
2018-03-03T00:03:34.876Z,98116.77
2018-03-03T00:06:02.475Z,98130.27
2018-03-03T00:08:30.037Z,98126.03
2018-03-03T00:10:58.423Z,98111.88
2018-03-03T00:13:26.010Z,98108.05
2018-03-03T00:15:53.571Z,98099.44
2018-03-03T00:18:21.121Z,98099.64
2018-03-03T00:20:48.702Z,98109.70
2018-03-03T00:23:16.242Z,98117.22
2018-03-03T00:25:43.786Z,98112.52
2018-03-03T00:28:11.368Z,98096.16
2018-03-03T00:30:38.928Z,98090.79
2018-03-03T00:33:06.483Z,98090.52
2018-03-03T00:35:34.075Z,98088.50
2018-03-03T00:38:01.634Z,98100.55
2018-03-03T00:40:29.202Z,98092.44
2018-03-03T00:42:56.786Z,98087.42
2018-03-03T00:45:24.341Z,98096.75
2018-03-03T00:47:51.884Z,98096.95
2018-03-03T00:50:19.475Z,98102.46
2018-03-03T00:52:47.028Z,98096.14
2018-03-03T00:55:14.609Z,98103.50
2018-03-03T00:57:42.200Z,98089.86
2018-03-03T01:00:09.740Z,98086.55
2018-03-03T01:02:37.293Z,98085.30
2018-03-03T01:05:04.881Z,98087.64
2018-03-03T01:07:32.427Z,98084.53
2018-03-03T01:09:59.976Z,98091.93
2018-03-03T01:12:27.563Z,98100.75
2018-03-03T01:14:55.117Z,98081.22
2018-03-03T01:17:22.669Z,98081.99
2018-03-03T01:19:50.259Z,98072.23
2018-03-03T01:22:17.810Z,98080.14
2018-03-03T01:24:45.356Z,98071.75
2018-03-03T01:27:12.936Z,98061.52
2018-03-03T01:29:40.497Z,98043.09
2018-03-03T01:32:08.222Z,98042.86
2018-03-03T01:34:35.825Z,98049.47
2018-03-03T01:37:03.376Z,98050.02
2018-03-03T01:39:30.946Z,98038.55
2018-03-03T01:41:58.523Z,98019.94
2018-03-03T01:44:26.071Z,98017.45
2018-03-03T01:46:53.621Z,98018.64
2018-03-03T01:49:21.212Z,98028.57
2018-03-03T01:51:48.759Z,98030.42
2018-03-03T01:54:16.297Z,98043.61
2018-03-03T01:56:43.878Z,98052.77
2018-03-03T01:59:11.430Z,98040.39
2018-03-03T02:01:38.979Z,98039.61
2018-03-03T02:04:06.575Z,98053.53
2018-03-03T02:06:34.155Z,98078.60
2018-03-03T02:09:01.718Z,98096.64
2018-03-03T02:11:29.319Z,98078.95
2018-03-03T02:13:56.869Z,98082.96
2018-03-03T02:16:24.426Z,98078.40
2018-03-03T02:18:52.019Z,98083.64
2018-03-03T02:21:19.560Z,98082.58
2018-03-03T02:23:47.309Z,98099.05
2018-03-03T02:26:14.916Z,98098.91
2018-03-03T02:28:42.483Z,98107.34
2018-03-03T02:31:10.054Z,98122.62
2018-03-03T02:33:37.671Z,98135.59
2018-03-03T02:36:05.248Z,98135.91
2018-03-03T02:38:32.827Z,98159.42
2018-03-03T02:41:00.435Z,98156.95
2018-03-03T02:43:28.219Z,98152.23
2018-03-03T02:45:55.787Z,98167.25
2018-03-03T02:48:23.379Z,98175.71
2018-03-03T02:50:50.938Z,98173.95
2018-03-03T02:53:18.642Z,98164.95
2018-03-03T02:55:46.286Z,98175.58
2018-03-03T02:58:13.858Z,98178.62
2018-03-03T03:00:41.428Z,98189.69
2018-03-03T03:03:09.062Z,98186.36
2018-03-03T03:05:36.769Z,98184.73
2018-03-03T03:08:04.345Z,98201.34
2018-03-03T03:10:31.959Z,98194.41
2018-03-03T03:12:59.522Z,98206.20
2018-03-03T03:15:27.092Z,98225.77
2018-03-03T03:17:54.742Z,98241.78
2018-03-03T03:20:22.281Z,98243.53
2018-03-03T03:22:49.838Z,98253.05
2018-03-03T03:25:17.455Z,98271.27
2018-03-03T03:27:45.054Z,98274.89
2018-03-03T03:30:12.756Z,98267.41
2018-03-03T03:32:40.389Z,98261.60
2018-03-03T03:35:07.954Z,98265.95
2018-03-03T03:37:35.568Z,98249.87
2018-03-03T03:40:03.270Z,98247.57
2018-03-03T03:42:30.829Z,98229.73
2018-03-03T03:44:58.398Z,98240.17
2018-03-03T03:47:26.006Z,98238.88
2018-03-03T03:49:53.563Z,98244.19
2018-03-03T03:52:21.122Z,98246.20
2018-03-03T03:54:48.709Z,98253.56
2018-03-03T03:57:16.265Z,98255.45
2018-03-03T03:59:43.974Z,98242.69
2018-03-03T04:02:11.570Z,98233.35
2018-03-03T04:04:39.129Z,98233.11
2018-03-03T04:07:06.702Z,98234.38
2018-03-03T04:09:34.294Z,98225.81
2018-03-03T04:12:01.856Z,98215.69
2018-03-03T04:14:29.423Z,98221.97
2018-03-03T04:16:57.018Z,98228.01
2018-03-03T04:19:24.575Z,98236.88
2018-03-03T04:21:52.346Z,98239.31
2018-03-03T04:24:19.983Z,98236.98
2018-03-03T04:26:47.589Z,98241.23
2018-03-03T04:29:15.179Z,98239.31
2018-03-03T04:31:42.977Z,98253.81
2018-03-03T04:34:10.544Z,98242.16
2018-03-03T04:36:38.161Z,98246.26
2018-03-03T04:39:05.821Z,98252.29
2018-03-03T04:41:33.410Z,98263.84
2018-03-03T04:44:00.993Z,98253.91
2018-03-03T04:46:28.638Z,98254.27
2018-03-03T04:48:56.227Z,98250.00
2018-03-03T04:51:23.844Z,98256.91
2018-03-03T04:53:51.485Z,98243.31
2018-03-03T04:56:19.078Z,98243.16
2018-03-03T04:58:57.418Z,98234.50
2018-03-03T05:01:30.843Z,98211.63
2018-03-03T05:07:06.998Z,98156.30
2018-03-03T05:09:34.656Z,98168.91
2018-03-03T05:12:02.254Z,98153.66
2018-03-03T05:17:40.510Z,98128.57
2018-03-03T05:23:15.356Z,98141.91
2018-03-03T05:25:48.642Z,98137.19
2018-03-03T05:28:21.740Z,98145.30
2018-03-03T05:33:53.960Z,98138.76
2018-03-03T05:36:27.112Z,98143.31
2018-03-03T05:39:00.115Z,98137.54
2018-03-03T05:41:33.340Z,98134.59
2018-03-03T05:44:06.611Z,98133.04
2018-03-03T05:46:42.878Z,98130.55
2018-03-03T05:49:16.177Z,98132.08
2018-03-03T05:51:49.301Z,98137.20
2018-03-03T05:54:22.479Z,98136.83
2018-03-03T05:56:54.074Z,98131.31
2018-03-03T05:59:27.180Z,98129.88
2018-03-03T06:05:09.407Z,98137.98
2018-03-03T06:07:41.850Z,98147.22
2018-03-03T06:10:16.850Z,98143.64
2018-03-03T06:12:44.449Z,98131.88
2018-03-03T06:15:12.158Z,98132.50
2018-03-03T06:17:39.717Z,98124.83
2018-03-03T06:20:07.320Z,98118.34
2018-03-03T06:22:35.018Z,98126.28
2018-03-03T06:25:02.583Z,98122.03
2018-03-03T06:27:30.172Z,98126.60
2018-03-03T06:29:57.955Z,98122.55
2018-03-03T06:32:25.542Z,98131.98
2018-03-03T06:34:53.144Z,98139.02
2018-03-03T06:37:20.707Z,98136.77
2018-03-03T06:39:48.264Z,98144.98
2018-03-03T06:42:15.858Z,98173.27
2018-03-03T06:44:43.440Z,98172.45
2018-03-03T06:47:12.304Z,98182.15
2018-03-03T06:49:39.906Z,98160.20
2018-03-03T06:52:07.848Z,98161.44
2018-03-03T06:54:35.413Z,98167.02
2018-03-03T06:57:03.003Z,98151.41
2018-03-03T06:59:30.562Z,98172.94
2018-03-03T07:01:58.140Z,98170.98
2018-03-03T07:04:25.952Z,98177.17
2018-03-03T07:06:53.534Z,98184.74
2018-03-03T07:09:21.156Z,98190.22
2018-03-03T07:11:48.777Z,98198.71
2018-03-03T07:14:16.466Z,98193.59
2018-03-03T07:16:44.036Z,98201.54
2018-03-03T07:19:11.626Z,98202.59
2018-03-03T07:21:39.182Z,98201.47
2018-03-03T07:24:06.750Z,98205.55
2018-03-03T07:26:34.360Z,98214.27
2018-03-03T07:29:01.933Z,98224.92
2018-03-03T07:31:29.504Z,98225.55
2018-03-03T07:33:57.104Z,98226.89
2018-03-03T07:36:24.665Z,98229.83
2018-03-03T07:38:52.237Z,98236.37
2018-03-03T07:41:19.854Z,98242.28
2018-03-03T07:43:47.491Z,98246.88
2018-03-03T07:46:15.069Z,98247.23
2018-03-03T07:48:42.677Z,98260.39
2018-03-03T07:51:10.289Z,98252.63
2018-03-03T07:53:37.951Z,98262.44
2018-03-03T07:56:05.620Z,98255.03
2018-03-03T07:58:44.999Z,98261.23
2018-03-03T08:01:12.612Z,98266.84
2018-03-03T08:03:40.223Z,98270.90
2018-03-03T08:06:07.765Z,98275.27
2018-03-03T08:08:35.516Z,98275.38
2018-03-03T08:11:03.077Z,98278.87
2018-03-03T08:13:30.624Z,98283.89
2018-03-03T08:15:58.223Z,98296.28
2018-03-03T08:18:26.023Z,98307.37
2018-03-03T08:20:53.693Z,98316.05
2018-03-03T08:23:21.327Z,98325.98
2018-03-03T08:25:48.889Z,98331.14
2018-03-03T08:28:16.465Z,98344.09
2018-03-03T08:30:44.065Z,98348.33
2018-03-03T08:33:11.791Z,98356.36
2018-03-03T08:35:39.353Z,98379.19
2018-03-03T08:38:06.990Z,98378.60
2018-03-03T08:40:34.592Z,98366.66
2018-03-03T08:43:02.159Z,98362.41
2018-03-03T08:45:29.799Z,98366.22
2018-03-03T08:47:57.374Z,98363.47
2018-03-03T08:50:24.950Z,98356.97
2018-03-03T08:52:52.550Z,98371.75
2018-03-03T08:55:20.127Z,98370.34
2018-03-03T08:57:47.798Z,98372.89
2018-03-03T09:00:15.415Z,98379.17
2018-03-03T09:02:42.981Z,98373.31
2018-03-03T09:05:10.557Z,98367.80
2018-03-03T09:07:38.169Z,98374.42
2018-03-03T09:10:05.935Z,98380.81
2018-03-03T09:12:33.546Z,98377.76
2018-03-03T09:15:01.150Z,98386.22
2018-03-03T09:17:28.723Z,98392.59
2018-03-03T09:19:56.288Z,98396.89
2018-03-03T09:22:23.912Z,98394.08
2018-03-03T09:24:51.490Z,98392.02
2018-03-03T09:27:19.153Z,98383.91
2018-03-03T09:29:46.775Z,98379.47
2018-03-03T09:32:14.354Z,98382.88
2018-03-03T09:34:42.117Z,98369.55
2018-03-03T09:37:09.727Z,98377.41
2018-03-03T09:39:37.306Z,98372.19
2018-03-03T09:42:04.922Z,98370.00
2018-03-03T09:44:32.530Z,98371.66
2018-03-03T09:47:00.226Z,98370.67
2018-03-03T09:49:27.835Z,98367.91
2018-03-03T09:51:55.457Z,98355.41
2018-03-03T09:54:23.033Z,98359.16
2018-03-03T09:56:50.725Z,98349.33
2018-03-03T09:59:18.720Z,98350.03
2018-03-03T10:01:52.330Z,98336.56
2018-03-03T10:04:13.906Z,98342.08
2018-03-03T10:06:41.510Z,98334.65
2018-03-03T10:09:09.207Z,98337.41
2018-03-03T10:11:36.818Z,98335.45
2018-03-03T10:14:04.430Z,98336.33
2018-03-03T10:16:32.145Z,98338.84
2018-03-03T10:19:00.093Z,98334.88
2018-03-03T10:21:27.710Z,98333.86
2018-03-03T10:23:55.274Z,98336.15
2018-03-03T10:26:22.954Z,98334.38
2018-03-03T10:28:50.719Z,98328.00
2018-03-03T10:31:18.297Z,98332.17
2018-03-03T10:33:45.870Z,98323.66
2018-03-03T10:36:13.477Z,98323.95
2018-03-03T10:38:41.345Z,98327.29
2018-03-03T10:41:08.932Z,98320.94
2018-03-03T10:43:36.529Z,98311.70
2018-03-03T10:46:04.179Z,98307.61
2018-03-03T10:48:31.752Z,98300.70
2018-03-03T10:50:59.376Z,98297.80
2018-03-03T10:53:26.954Z,98298.20
2018-03-03T10:55:54.513Z,98300.63
2018-03-03T10:58:22.346Z,98308.33
2018-03-03T11:00:50.629Z,98306.98
2018-03-03T11:03:18.181Z,98308.69
2018-03-03T11:05:45.792Z,98307.54
2018-03-03T11:08:13.354Z,98316.07
2018-03-03T11:10:40.924Z,98317.26
2018-03-03T11:13:08.536Z,98315.44
2018-03-03T11:15:36.098Z,98310.87
2018-03-03T11:18:03.665Z,98299.34
2018-03-03T11:20:31.339Z,98301.25
2018-03-03T11:22:58.911Z,98308.13
2018-03-03T11:25:26.486Z,98307.06
2018-03-03T11:27:54.107Z,98301.08
2018-03-03T11:30:21.680Z,98304.50
2018-03-03T11:32:49.261Z,98314.13
2018-03-03T11:35:16.876Z,98314.00
2018-03-03T11:37:44.451Z,98297.41
2018-03-03T11:40:12.024Z,98303.39
2018-03-03T11:42:39.637Z,98293.09
2018-03-03T11:45:07.194Z,98297.89
2018-03-03T11:47:34.960Z,98298.04
2018-03-03T11:50:02.570Z,98285.49
2018-03-03T11:52:30.153Z,98298.05
2018-03-03T11:54:57.721Z,98299.58
2018-03-03T11:57:25.326Z,98296.09
2018-03-03T11:59:52.898Z,98302.37
2018-03-03T12:02:20.457Z,98299.17
2018-03-03T12:04:48.064Z,98303.03
2018-03-03T12:07:15.654Z,98303.45
2018-03-03T12:09:43.372Z,98296.28
2018-03-03T12:12:10.970Z,98298.83
2018-03-03T12:14:39.492Z,98304.70
2018-03-03T12:17:07.056Z,98300.37
2018-03-03T12:19:34.683Z,98300.37
2018-03-03T12:22:03.173Z,98302.07
2018-03-03T12:24:30.914Z,98301.05
2018-03-03T12:26:58.557Z,98305.95
2018-03-03T12:29:26.152Z,98307.05
2018-03-03T12:31:53.721Z,98309.66
2018-03-03T12:34:21.315Z,98291.36
2018-03-03T12:36:48.884Z,98308.14
2018-03-03T12:39:16.451Z,98309.45
2018-03-03T12:41:44.055Z,98306.53
2018-03-03T12:44:11.807Z,98307.89
2018-03-03T12:46:39.381Z,98316.61
2018-03-03T12:49:07.007Z,98315.55
2018-03-03T12:51:34.578Z,98316.23
2018-03-03T12:54:02.160Z,98319.53
2018-03-03T12:56:29.751Z,98317.17
2018-03-03T12:58:57.306Z,98317.25
2018-03-03T13:01:24.914Z,98309.16
2018-03-03T13:03:52.517Z,98319.80
2018-03-03T13:06:20.079Z,98314.25
2018-03-03T13:08:47.651Z,98315.75
2018-03-03T13:11:15.258Z,98307.59
2018-03-03T13:13:42.823Z,98309.98
2018-03-03T13:16:10.408Z,98309.28
2018-03-03T13:18:37.998Z,98297.52
2018-03-03T13:21:05.574Z,98305.47
2018-03-03T13:23:33.142Z,98317.48
2018-03-03T13:26:00.753Z,98301.77
2018-03-03T13:28:28.519Z,98316.63
2018-03-03T13:30:56.081Z,98313.31
2018-03-03T13:33:23.736Z,98315.77
2018-03-03T13:35:51.295Z,98321.30
2018-03-03T13:38:18.847Z,98319.19
2018-03-03T13:40:46.536Z,98322.61
2018-03-03T13:43:14.138Z,98324.93
2018-03-03T13:45:41.690Z,98340.87
2018-03-03T13:48:09.329Z,98334.58
2018-03-03T13:50:36.958Z,98343.11
2018-03-03T13:53:04.556Z,98332.08
2018-03-03T13:55:32.329Z,98332.73
2018-03-03T13:57:59.904Z,98330.84
2018-03-03T14:00:27.473Z,98326.84
2018-03-03T14:02:55.078Z,98330.94
2018-03-03T14:05:22.637Z,98346.53
2018-03-03T14:07:50.194Z,98347.61
2018-03-03T14:10:17.787Z,98350.51
2018-03-03T14:12:45.372Z,98350.31
2018-03-03T14:15:12.934Z,98350.47
2018-03-03T14:17:40.558Z,98354.37
2018-03-03T14:20:08.112Z,98354.14
2018-03-03T14:22:35.672Z,98348.33
2018-03-03T14:25:03.264Z,98345.23
2018-03-03T14:27:30.844Z,98350.20
2018-03-03T14:29:58.408Z,98356.05
2018-03-03T14:32:26.010Z,98362.08
2018-03-03T14:34:53.590Z,98362.59
2018-03-03T14:37:21.270Z,98368.47
2018-03-03T14:39:49.241Z,98367.34
2018-03-03T14:42:17.395Z,98364.97
2018-03-03T14:44:46.438Z,98368.71
2018-03-03T14:47:14.676Z,98370.11
2018-03-03T14:49:42.284Z,98379.76
2018-03-03T14:52:09.841Z,98379.05
2018-03-03T14:54:37.461Z,98386.86
2018-03-03T14:57:05.160Z,98392.94
2018-03-03T14:59:32.727Z,98394.73
2018-03-03T15:02:00.377Z,98404.22
2018-03-03T15:04:27.936Z,98405.03
2018-03-03T15:06:55.740Z,98405.28
2018-03-03T15:09:23.361Z,98401.41
2018-03-03T15:11:50.932Z,98401.22
2018-03-03T15:14:18.482Z,98412.64
2018-03-03T15:16:46.163Z,98416.63
2018-03-03T15:19:13.735Z,98412.96
2018-03-03T15:21:41.300Z,98414.30
2018-03-03T15:24:08.940Z,98417.42
2018-03-03T15:26:36.499Z,98427.39
2018-03-03T15:29:04.043Z,98426.73
2018-03-03T15:31:31.643Z,98421.38
2018-03-03T15:33:59.197Z,98426.89
2018-03-03T15:36:26.743Z,98429.03
2018-03-03T15:38:54.370Z,98417.81
2018-03-03T15:41:21.929Z,98407.99
2018-03-03T15:43:49.489Z,98424.89
2018-03-03T15:46:17.088Z,98446.19
2018-03-03T15:48:44.868Z,98449.61
2018-03-03T15:51:12.426Z,98460.50
2018-03-03T15:53:40.045Z,98461.08
2018-03-03T15:56:07.598Z,98465.02
2018-03-03T15:58:35.157Z,98482.02
2018-03-03T16:01:02.735Z,98480.18
2018-03-03T16:03:30.299Z,98475.98
2018-03-03T16:05:57.854Z,98474.41
2018-03-03T16:08:25.689Z,98479.50
2018-03-03T16:10:53.517Z,98472.84
2018-03-03T16:13:21.071Z,98480.47
2018-03-03T16:15:48.811Z,98495.64
2018-03-03T16:18:16.402Z,98499.53
2018-03-03T16:20:43.964Z,98510.69
2018-03-03T16:23:11.568Z,98506.52
2018-03-03T16:25:39.250Z,98512.52
2018-03-03T16:28:06.751Z,98507.92
2018-03-03T16:30:34.392Z,98512.00
2018-03-03T16:33:01.955Z,98509.64
2018-03-03T16:35:29.511Z,98516.39
2018-03-03T16:37:57.103Z,98534.82
2018-03-03T16:40:24.807Z,98551.70
2018-03-03T16:42:52.378Z,98555.49
2018-03-03T16:45:19.976Z,98571.33
2018-03-03T16:47:47.526Z,98573.19
2018-03-03T16:50:15.080Z,98575.86
2018-03-03T16:52:42.756Z,98576.91
2018-03-03T16:55:10.380Z,98581.95
2018-03-03T16:57:37.943Z,98569.80
2018-03-03T17:00:05.570Z,98576.14
2018-03-03T17:02:33.125Z,98577.27
2018-03-03T17:05:00.706Z,98579.02
2018-03-03T17:07:28.314Z,98586.45
2018-03-03T17:09:55.877Z,98581.75
2018-03-03T17:12:23.438Z,98578.41
2018-03-03T17:14:51.022Z,98576.88
2018-03-03T17:17:18.590Z,98568.00
2018-03-03T17:19:46.171Z,98571.98
2018-03-03T17:22:13.774Z,98577.47
2018-03-03T17:24:41.338Z,98576.13
2018-03-03T17:27:08.893Z,98582.36
2018-03-03T17:29:36.480Z,98592.22
2018-03-03T17:32:04.026Z,98587.38
2018-03-03T17:34:31.585Z,98581.28
2018-03-03T17:36:59.183Z,98577.08
2018-03-03T17:39:26.754Z,98564.52
2018-03-03T17:41:54.317Z,98566.66
2018-03-03T17:44:21.985Z,98551.97
2018-03-03T17:46:49.570Z,98561.67
2018-03-03T17:49:17.164Z,98576.33
2018-03-03T17:51:44.776Z,98568.54
2018-03-03T17:54:12.378Z,98582.56
2018-03-03T17:56:39.948Z,98590.63
2018-03-03T17:59:07.553Z,98588.50
2018-03-03T18:01:35.127Z,98594.33
2018-03-03T18:04:02.771Z,98594.94
2018-03-03T18:06:30.358Z,98592.88
2018-03-03T18:08:57.929Z,98585.45
2018-03-03T18:11:25.503Z,98582.59
2018-03-03T18:13:56.892Z,98579.81
2018-03-03T18:16:24.463Z,98584.12
2018-03-03T18:18:52.135Z,98568.36
2018-03-03T18:21:19.729Z,98555.58
2018-03-03T18:23:47.276Z,98557.88
2018-03-03T18:26:14.841Z,98547.44
2018-03-03T18:28:42.592Z,98555.88
2018-03-03T18:31:10.209Z,98557.55
2018-03-03T18:33:37.788Z,98549.43
2018-03-03T18:36:05.586Z,98553.09
2018-03-03T18:38:33.245Z,98554.17
2018-03-03T18:41:00.832Z,98544.92
2018-03-03T18:43:28.434Z,98546.91
2018-03-03T18:45:56.031Z,98536.19
2018-03-03T18:48:23.636Z,98535.55
2018-03-03T18:50:51.230Z,98530.76
2018-03-03T18:53:18.795Z,98524.31
2018-03-03T18:55:46.347Z,98535.25
2018-03-03T18:58:13.974Z,98537.03
2018-03-03T19:00:41.629Z,98535.00
2018-03-03T19:03:09.225Z,98537.58
2018-03-03T19:05:36.812Z,98545.91
2018-03-03T19:08:04.375Z,98550.48
2018-03-03T19:10:31.929Z,98548.52
2018-03-03T19:12:59.509Z,98546.27
2018-03-03T19:15:27.061Z,98535.59
2018-03-03T19:17:54.620Z,98546.88
2018-03-03T19:20:22.241Z,98551.56
2018-03-03T19:22:49.804Z,98542.72
2018-03-03T19:25:17.372Z,98553.69
2018-03-03T19:27:44.980Z,98551.00
2018-03-03T19:30:12.718Z,98544.89
2018-03-03T19:32:40.297Z,98546.27
2018-03-03T19:35:07.894Z,98535.80
2018-03-03T19:37:35.459Z,98530.87
2018-03-03T19:40:03.160Z,98527.38
2018-03-03T19:42:30.750Z,98528.75
2018-03-03T19:44:58.297Z,98534.27
2018-03-03T19:47:25.876Z,98519.19
2018-03-03T19:49:53.483Z,98520.61
2018-03-03T19:52:21.096Z,98523.96
2018-03-03T19:54:48.651Z,98519.95
2018-03-03T19:57:16.250Z,98518.89
2018-03-03T19:59:43.810Z,98528.02
2018-03-03T20:02:11.427Z,98521.00
2018-03-03T20:04:39.039Z,98520.61
2018-03-03T20:07:06.630Z,98515.02
2018-03-03T20:09:34.199Z,98518.17
2018-03-03T20:12:01.914Z,98508.01
2018-03-03T20:14:29.513Z,98510.65
2018-03-03T20:16:57.075Z,98507.46
2018-03-03T20:19:24.676Z,98503.48
2018-03-03T20:21:52.380Z,98509.38
2018-03-03T20:24:19.958Z,98490.38
2018-03-03T20:26:47.513Z,98487.34
2018-03-03T20:29:15.157Z,98484.63
2018-03-03T20:31:42.744Z,98499.52
2018-03-03T20:34:10.324Z,98494.80
2018-03-03T20:36:38.910Z,98495.42
2018-03-03T20:39:06.495Z,98501.05
2018-03-03T20:41:34.100Z,98503.64
2018-03-03T20:44:01.711Z,98511.27
2018-03-03T20:46:29.290Z,98505.63
2018-03-03T20:48:57.088Z,98484.10
2018-03-03T20:51:24.685Z,98484.34
2018-03-03T20:53:52.399Z,98488.30
2018-03-03T20:56:19.956Z,98483.08
2018-03-03T20:58:47.559Z,98491.35
2018-03-03T21:01:15.120Z,98477.19
2018-03-03T21:03:42.670Z,98462.77
2018-03-03T21:06:10.259Z,98461.70
2018-03-03T21:08:37.819Z,98455.66
2018-03-03T21:11:05.407Z,98460.73
2018-03-03T21:13:33.031Z,98455.50
2018-03-03T21:16:00.593Z,98442.91
2018-03-03T21:18:28.140Z,98445.29
2018-03-03T21:20:55.799Z,98447.52
2018-03-03T21:23:23.359Z,98446.83
2018-03-03T21:25:50.914Z,98436.72
2018-03-03T21:28:18.510Z,98426.26
2018-03-03T21:30:46.070Z,98426.42
2018-03-03T21:33:13.633Z,98437.59
2018-03-03T21:35:41.220Z,98441.78
2018-03-03T21:38:08.780Z,98432.31
2018-03-03T21:40:36.364Z,98437.44
2018-03-03T21:43:03.961Z,98440.38
2018-03-03T21:45:31.538Z,98440.59
2018-03-03T21:47:59.102Z,98438.65
2018-03-03T21:50:26.811Z,98436.06
2018-03-03T21:52:54.368Z,98440.37
2018-03-03T21:55:21.928Z,98442.09
2018-03-03T21:57:49.596Z,98442.27
2018-03-03T22:00:17.153Z,98431.64
2018-03-03T22:02:44.719Z,98430.69
2018-03-03T22:05:12.467Z,98428.54
2018-03-03T22:07:40.243Z,98427.94
2018-03-03T22:10:07.815Z,98428.12
2018-03-03T22:12:35.417Z,98432.09
2018-03-03T22:15:03.040Z,98429.97
2018-03-03T22:17:30.616Z,98430.92
2018-03-03T22:19:58.322Z,98427.36
2018-03-03T22:22:25.886Z,98417.14
2018-03-03T22:24:53.451Z,98420.80
2018-03-03T22:27:21.031Z,98424.21
2018-03-03T22:29:48.593Z,98423.66
2018-03-03T22:32:16.170Z,98426.45
2018-03-03T22:34:43.779Z,98428.62
2018-03-03T22:37:11.344Z,98419.48
2018-03-03T22:39:38.927Z,98421.24
2018-03-03T22:42:06.518Z,98419.21
2018-03-03T22:44:34.064Z,98412.71
2018-03-03T22:47:01.685Z,98426.02
2018-03-03T22:49:29.240Z,98423.52
2018-03-03T22:51:56.876Z,98422.03
2018-03-03T22:54:24.431Z,98424.70
2018-03-03T22:56:52.016Z,98420.95
2018-03-03T22:59:19.642Z,98414.67
2018-03-03T23:01:47.183Z,98419.66
2018-03-03T23:04:14.807Z,98417.42
2018-03-03T23:06:42.376Z,98420.91
2018-03-03T23:09:09.929Z,98416.67
2018-03-03T23:11:37.528Z,98405.84
2018-03-03T23:14:05.089Z,98405.56
2018-03-03T23:16:32.644Z,98400.78
2018-03-03T23:19:00.247Z,98398.02
2018-03-03T23:21:27.818Z,98409.09
2018-03-03T23:23:55.378Z,98403.33
2018-03-03T23:26:22.988Z,98405.09
2018-03-03T23:28:50.551Z,98402.45
2018-03-03T23:31:18.098Z,98407.13
2018-03-03T23:33:45.723Z,98401.94
2018-03-03T23:36:13.277Z,98412.75
2018-03-03T23:38:40.834Z,98421.31
2018-03-03T23:41:08.435Z,98414.94
2018-03-03T23:43:36.180Z,98410.06
2018-03-03T23:46:03.745Z,98414.17
2018-03-03T23:48:31.363Z,98405.94
2018-03-03T23:50:58.944Z,98399.22
2018-03-03T23:53:26.503Z,98398.53
2018-03-03T23:55:54.117Z,98394.98
2018-03-03T23:58:21.685Z,98385.39
